Time;durP1;ratioP1;P1;durP2;ratioP2;P2;SDS_P1;SDS_P2;PMS_P1;PMS_P2;Temp;Humidity;BMP_temperature;BMP_pressure;BME280_temperature;BME280_humidity;BME280_pressure;Samples;Min_cycle;Max_cycle;Signal;HPM_P1;HPM_P2
2023/05/19 00:02:17;;;;;;;8.68;7.80;;;;;;;;;;5089287;28;20550;-72
2023/05/19 00:04:43;;;;;;;8.23;7.45;;;;;;;;;;5089921;28;20067;-72
2023/05/19 00:07:10;;;;;;;8.10;7.50;;;;;;;;;;5090774;28;20048;-71
2023/05/19 00:09:36;;;;;;;8.02;7.40;;;;;;;;;;5101637;28;20508;-72
2023/05/19 00:12:03;;;;;;;8.32;7.57;;;;;;;;;;5089293;28;20526;-72
2023/05/19 00:14:29;;;;;;;8.60;6.80;;;;;;;;;;5089666;28;20101;-72
2023/05/19 00:16:56;;;;;;;7.90;7.30;;;;;;;;;;5091370;28;20134;-72
2023/05/19 00:19:24;;;;;;;7.65;6.97;;;;;;;;;;5093109;28;20036;-71
2023/05/19 00:21:50;;;;;;;7.28;6.68;;;;;;;;;;5093449;28;20473;-71
2023/05/19 00:24:16;;;;;;;7.60;7.00;;;;;;;;;;5094268;28;20066;-71
2023/05/19 00:26:42;;;;;;;10.95;7.40;;;;;;;;;;5092995;28;20051;-72
2023/05/19 00:29:08;;;;;;;7.90;7.10;;;;;;;;;;5093007;28;20032;-70
2023/05/19 00:31:35;;;;;;;6.82;6.15;;;;;;;;;;5093187;28;20154;-72
2023/05/19 00:34:01;;;;;;;6.45;5.95;;;;;;;;;;5074957;28;20036;-71
2023/05/19 00:36:28;;;;;;;9.25;6.90;;;;;;;;;;5074942;28;20043;-72
2023/05/19 00:38:55;;;;;;;6.03;5.63;;;;;;;;;;5075285;28;20104;-71
2023/05/19 00:41:21;;;;;;;6.35;5.72;;;;;;;;;;5088269;28;20123;-71
2023/05/19 00:43:47;;;;;;;6.40;5.53;;;;;;;;;;5093131;28;20136;-71
2023/05/19 00:46:14;;;;;;;6.43;5.93;;;;;;;;;;5096914;28;20053;-72
2023/05/19 00:48:40;;;;;;;5.57;5.13;;;;;;;;;;5105978;28;20036;-71
2023/05/19 00:51:06;;;;;;;6.97;5.65;;;;;;;;;;5075243;28;20419;-72
2023/05/19 00:53:32;;;;;;;5.78;5.38;;;;;;;;;;5093002;28;20040;-71
2023/05/19 00:55:59;;;;;;;6.95;5.13;;;;;;;;;;5057740;28;20097;-71
2023/05/19 00:58:29;;;;;;;5.85;5.35;;;;;;;;;;5092577;28;20048;-71
2023/05/19 01:01:07;;;;;;;5.63;4.78;;;;;;;;;;5076280;28;20606;-72
2023/05/19 01:03:34;;;;;;;8.07;4.65;;;;;;;;;;5100337;28;20046;-72
2023/05/19 01:06:03;;;;;;;5.00;4.50;;;;;;;;;;5074458;28;20028;-71
2023/05/19 01:08:30;;;;;;;4.30;3.97;;;;;;;;;;5092243;28;20047;-72
2023/05/19 01:10:56;;;;;;;4.00;3.80;;;;;;;;;;5074279;28;20587;-71
2023/05/19 01:13:22;;;;;;;3.33;3.13;;;;;;;;;;5092053;28;20119;-71
2023/05/19 01:15:55;;;;;;;3.63;3.40;;;;;;;;;;5074427;28;20115;-72
2023/05/19 01:18:24;;;;;;;4.95;3.67;;;;;;;;;;5074058;28;20047;-72
2023/05/19 01:20:52;;;;;;;3.40;3.10;;;;;;;;;;5062244;28;20055;-71
2023/05/19 01:23:24;;;;;;;3.15;2.80;;;;;;;;;;5075388;28;20043;-71
2023/05/19 01:26:02;;;;;;;5.82;2.75;;;;;;;;;;5074094;28;20118;-71
2023/05/19 01:28:47;;;;;;;2.10;2.00;;;;;;;;;;5091868;28;20109;-70
2023/05/19 01:31:13;;;;;;;2.58;2.45;;;;;;;;;;5091828;28;20036;-71
2023/05/19 01:33:40;;;;;;;2.40;2.30;;;;;;;;;;5091985;28;20048;-71
2023/05/19 01:36:07;;;;;;;2.40;2.30;;;;;;;;;;5073888;28;20036;-70
2023/05/19 01:38:33;;;;;;;2.10;2.00;;;;;;;;;;5091927;28;20047;-71
2023/05/19 01:40:59;;;;;;;1.95;1.90;;;;;;;;;;5091488;28;20131;-71
2023/05/19 01:43:25;;;;;;;2.67;2.30;;;;;;;;;;5076805;28;20131;-72
2023/05/19 01:45:51;;;;;;;2.08;1.98;;;;;;;;;;5080872;28;20089;-70
2023/05/19 01:48:17;;;;;;;2.25;2.15;;;;;;;;;;5091402;28;20473;-72
2023/05/19 01:50:44;;;;;;;1.95;1.85;;;;;;;;;;5091944;28;20078;-71
2023/05/19 01:53:11;;;;;;;4.90;2.20;;;;;;;;;;5091541;28;20036;-71
2023/05/19 01:55:47;;;;;;;2.25;2.15;;;;;;;;;;5073477;28;20102;-71
2023/05/19 01:58:16;;;;;;;2.35;2.25;;;;;;;;;;5091553;28;20075;-71
2023/05/19 02:00:57;;;;;;;2.22;2.05;;;;;;;;;;5073591;28;20048;-71
2023/05/19 02:03:41;;;;;;;2.70;2.03;;;;;;;;;;5091294;28;20078;-71
2023/05/19 02:06:17;;;;;;;2.83;1.90;;;;;;;;;;5091633;28;20040;-71
2023/05/19 02:08:49;;;;;;;1.88;1.80;;;;;;;;;;5091359;28;20058;-70
2023/05/19 02:11:25;;;;;;;1.92;1.83;;;;;;;;;;5090957;28;20040;-71
2023/05/19 02:13:51;;;;;;;2.58;2.00;;;;;;;;;;5073363;28;20094;-71
2023/05/19 02:16:18;;;;;;;1.85;1.75;;;;;;;;;;5082678;28;20043;-71
2023/05/19 02:18:46;;;;;;;2.10;1.90;;;;;;;;;;5073756;28;20043;-71
2023/05/19 02:21:16;;;;;;;1.60;1.60;;;;;;;;;;5099507;28;20135;-70
2023/05/19 02:23:44;;;;;;;2.15;2.00;;;;;;;;;;5073827;28;20420;-71
2023/05/19 02:26:10;;;;;;;2.10;2.00;;;;;;;;;;5090785;28;20217;-72
2023/05/19 02:28:36;;;;;;;1.75;1.65;;;;;;;;;;5090921;28;20036;-70
2023/05/19 02:31:04;;;;;;;2.92;1.90;;;;;;;;;;5072690;28;20419;-69
2023/05/19 02:33:30;;;;;;;1.98;1.90;;;;;;;;;;5089403;28;20036;-71
2023/05/19 02:35:56;;;;;;;1.85;1.75;;;;;;;;;;5096143;28;20042;-71
2023/05/19 02:38:22;;;;;;;1.83;1.73;;;;;;;;;;5091600;28;20063;-69
2023/05/19 02:40:50;;;;;;;2.20;2.05;;;;;;;;;;5068949;28;20532;-72
2023/05/19 02:43:16;;;;;;;3.38;2.30;;;;;;;;;;5094494;28;20549;-72
2023/05/19 02:45:42;;;;;;;2.80;2.60;;;;;;;;;;5079886;28;20229;-71
2023/05/19 02:48:08;;;;;;;3.20;2.35;;;;;;;;;;5090378;28;20115;-70
2023/05/19 02:50:34;;;;;;;4.63;2.50;;;;;;;;;;5072468;28;20032;-71
2023/05/19 02:53:01;;;;;;;4.75;2.45;;;;;;;;;;5072310;28;20508;-72
2023/05/19 02:55:27;;;;;;;2.72;2.53;;;;;;;;;;5071999;28;20055;-72
2023/05/19 02:57:53;;;;;;;3.03;2.83;;;;;;;;;;5055526;28;20035;-72
2023/05/19 03:00:19;;;;;;;10.68;2.53;;;;;;;;;;5071407;28;20528;-72
2023/05/19 03:02:45;;;;;;;3.42;2.40;;;;;;;;;;5084520;28;20040;-72
2023/05/19 03:05:13;;;;;;;4.93;3.15;;;;;;;;;;5090782;28;20512;-72
2023/05/19 03:07:38;;;;;;;3.13;2.92;;;;;;;;;;5072854;28;20032;-72
2023/05/19 03:10:08;;;;;;;3.63;3.33;;;;;;;;;;5089731;28;20093;-72
2023/05/19 03:12:34;;;;;;;3.60;3.30;;;;;;;;;;5084412;28;20066;-72
2023/05/19 03:15:00;;;;;;;2.95;2.75;;;;;;;;;;5090467;28;20555;-72
2023/05/19 03:17:32;;;;;;;2.97;2.78;;;;;;;;;;5090282;28;20559;-72
2023/05/19 03:19:58;;;;;;;3.70;3.40;;;;;;;;;;5095168;28;20361;-73
2023/05/19 03:22:24;;;;;;;4.07;3.40;;;;;;;;;;5072834;28;20044;-72
2023/05/19 03:24:53;;;;;;;3.97;3.42;;;;;;;;;;5072495;28;20664;-71
2023/05/19 03:27:20;;;;;;;3.78;3.47;;;;;;;;;;5080046;28;20074;-72
2023/05/19 03:29:45;;;;;;;3.38;2.90;;;;;;;;;;5079199;28;20039;-72
2023/05/19 03:32:12;;;;;;;4.63;3.10;;;;;;;;;;5071721;28;20036;-72
2023/05/19 03:34:38;;;;;;;4.07;3.38;;;;;;;;;;5051493;28;20577;-72
2023/05/19 03:37:04;;;;;;;4.13;3.80;;;;;;;;;;5071558;28;20036;-72
2023/05/19 03:39:31;;;;;;;4.40;3.67;;;;;;;;;;5071376;28;20392;-71
2023/05/19 03:41:57;;;;;;;4.45;3.10;;;;;;;;;;5069903;28;20039;-72
2023/05/19 03:44:23;;;;;;;4.22;3.45;;;;;;;;;;5095584;28;20036;-72
2023/05/19 03:46:50;;;;;;;3.90;3.58;;;;;;;;;;5071240;28;20036;-72
2023/05/19 03:49:34;;;;;;;3.55;3.35;;;;;;;;;;5089317;28;20039;-72
2023/05/19 03:52:03;;;;;;;2.85;2.70;;;;;;;;;;5091505;28;20052;-71
2023/05/19 03:54:46;;;;;;;3.05;2.85;;;;;;;;;;5088347;28;20474;-72
2023/05/19 03:57:13;;;;;;;3.38;3.08;;;;;;;;;;5077526;28;20189;-72
2023/05/19 03:59:40;;;;;;;4.70;2.55;;;;;;;;;;5088035;28;20451;-72
2023/05/19 04:02:06;;;;;;;6.45;3.38;;;;;;;;;;5075856;28;20094;-72
2023/05/19 04:04:32;;;;;;;2.45;2.35;;;;;;;;;;5075566;28;20600;-73
2023/05/19 04:06:58;;;;;;;3.08;2.78;;;;;;;;;;5093512;28;20052;-73
2023/05/19 04:09:24;;;;;;;4.70;2.75;;;;;;;;;;5102507;28;20177;-73
2023/05/19 04:11:50;;;;;;;3.47;3.25;;;;;;;;;;5088542;28;20039;-73
2023/05/19 04:14:18;;;;;;;3.33;3.10;;;;;;;;;;5079663;28;20040;-73
2023/05/19 04:16:44;;;;;;;2.90;2.63;;;;;;;;;;5098843;28;20047;-73
2023/05/19 04:19:10;;;;;;;5.00;2.95;;;;;;;;;;5075391;28;20047;-74
2023/05/19 04:21:36;;;;;;;3.30;2.90;;;;;;;;;;5093648;28;20048;-74
2023/05/19 04:24:05;;;;;;;3.65;3.35;;;;;;;;;;5077500;28;20118;-73
2023/05/19 04:26:33;;;;;;;3.75;3.08;;;;;;;;;;5061415;28;20388;-73
2023/05/19 04:29:03;;;;;;;3.50;3.20;;;;;;;;;;5058348;28;20078;-74
2023/05/19 04:31:29;;;;;;;3.35;3.05;;;;;;;;;;5048519;28;20058;-73
2023/05/19 04:33:56;;;;;;;3.67;3.47;;;;;;;;;;5080490;28;20526;-73
2023/05/19 04:36:22;;;;;;;3.88;3.58;;;;;;;;;;5073783;28;20122;-73
2023/05/19 04:38:53;;;;;;;3.35;3.08;;;;;;;;;;5068473;28;20416;-74
2023/05/19 04:41:22;;;;;;;3.28;2.90;;;;;;;;;;5077447;28;20126;-73
2023/05/19 04:43:48;;;;;;;3.47;3.28;;;;;;;;;;5077896;28;20102;-74
2023/05/19 04:46:16;;;;;;;3.10;2.90;;;;;;;;;;5085062;28;20074;-72
2023/05/19 04:48:44;;;;;;;3.40;3.20;;;;;;;;;;5074356;28;20198;-74
2023/05/19 04:51:13;;;;;;;6.85;3.58;;;;;;;;;;5057956;28;20467;-73
2023/05/19 04:53:40;;;;;;;4.43;3.90;;;;;;;;;;5074416;28;20500;-73
2023/05/19 04:56:08;;;;;;;3.67;3.45;;;;;;;;;;5074259;28;20056;-73
2023/05/19 04:58:34;;;;;;;5.70;4.65;;;;;;;;;;5087827;28;20150;-74
2023/05/19 05:01:01;;;;;;;4.72;4.13;;;;;;;;;;5074572;28;20099;-74
2023/05/19 05:03:29;;;;;;;4.35;4.05;;;;;;;;;;5074328;28;20055;-72
2023/05/19 05:05:57;;;;;;;5.47;4.03;;;;;;;;;;5074796;28;20530;-73
2023/05/19 05:08:23;;;;;;;5.25;4.78;;;;;;;;;;5092395;28;20042;-73
2023/05/19 05:10:51;;;;;;;5.82;5.13;;;;;;;;;;5092695;28;20040;-74
2023/05/19 05:13:20;;;;;;;4.63;4.22;;;;;;;;;;5074296;28;20032;-74
2023/05/19 05:15:46;;;;;;;9.98;4.70;;;;;;;;;;5074331;28;20043;-73
2023/05/19 05:18:14;;;;;;;5.13;4.63;;;;;;;;;;5074406;28;20105;-74
2023/05/19 05:20:43;;;;;;;5.22;4.82;;;;;;;;;;5064353;28;20060;-73
2023/05/19 05:23:13;;;;;;;;;;;;;;;;;;5095314;28;20130;-73
2023/05/19 05:25:41;;;;;;;4.97;4.57;;;;;;;;;;5074148;28;19919;-73
2023/05/19 05:28:07;;;;;;;4.88;4.57;;;;;;;;;;5075263;28;20240;-77
2023/05/19 05:30:36;;;;;;;5.10;4.47;;;;;;;;;;5057302;28;20043;-72
2023/05/19 05:33:03;;;;;;;6.93;4.43;;;;;;;;;;5086600;28;20050;-73
2023/05/19 05:35:33;;;;;;;9.18;4.50;;;;;;;;;;5094540;28;20040;-74
2023/05/19 05:38:00;;;;;;;5.82;5.32;;;;;;;;;;5078973;28;20122;-73
2023/05/19 05:40:26;;;;;;;7.07;5.32;;;;;;;;;;5091442;28;20593;-74
2023/05/19 05:42:57;;;;;;;6.28;4.97;;;;;;;;;;5080604;28;20032;-74
2023/05/19 05:45:26;;;;;;;7.85;5.53;;;;;;;;;;5079581;28;20040;-74
2023/05/19 05:47:53;;;;;;;7.28;6.05;;;;;;;;;;5054089;28;20032;-74
2023/05/19 05:50:20;;;;;;;9.85;6.55;;;;;;;;;;5073445;28;20051;-72
2023/05/19 05:52:46;;;;;;;7.72;5.93;;;;;;;;;;5082061;28;20036;-74
2023/05/19 05:55:14;;;;;;;7.10;6.35;;;;;;;;;;5072392;28;20056;-75
2023/05/19 05:57:42;;;;;;;7.57;6.32;;;;;;;;;;5096591;28;20530;-75
2023/05/19 06:00:14;;;;;;;6.30;5.57;;;;;;;;;;5072995;28;20418;-77
2023/05/19 06:02:48;;;;;;;6.00;5.60;;;;;;;;;;5077155;28;20050;-77
2023/05/19 06:05:15;;;;;;;5.70;5.20;;;;;;;;;;5070135;28;20068;-75
2023/05/19 06:07:42;;;;;;;5.55;5.20;;;;;;;;;;5050040;28;20105;-75
2023/05/19 06:10:10;;;;;;;5.82;5.38;;;;;;;;;;5054921;28;20043;-73
2023/05/19 06:12:39;;;;;;;5.88;5.38;;;;;;;;;;5096851;28;20036;-75
2023/05/19 06:15:06;;;;;;;7.77;7.10;;;;;;;;;;5075133;28;20376;-76
2023/05/19 06:17:38;;;;;;;7.15;5.32;;;;;;;;;;5090445;28;20096;-75
2023/05/19 06:20:05;;;;;;;5.88;5.30;;;;;;;;;;5072695;28;20052;-75
2023/05/19 06:22:31;;;;;;;5.60;5.20;;;;;;;;;;5091025;28;20106;-74
2023/05/19 06:24:58;;;;;;;6.28;5.68;;;;;;;;;;5074510;28;20044;-76
2023/05/19 06:27:24;;;;;;;5.90;5.43;;;;;;;;;;5073563;28;20055;-75
2023/05/19 06:29:50;;;;;;;6.30;5.80;;;;;;;;;;5073783;28;20035;-75
2023/05/19 06:32:16;;;;;;;10.68;9.73;;;;;;;;;;5082817;28;20065;-75
2023/05/19 06:34:43;;;;;;;6.18;5.68;;;;;;;;;;5069320;28;20046;-76
2023/05/19 06:37:09;;;;;;;9.07;8.07;;;;;;;;;;5092892;28;20520;-74
2023/05/19 06:39:35;;;;;;;5.75;5.35;;;;;;;;;;5072043;28;20047;-76
2023/05/19 06:42:02;;;;;;;6.10;5.50;;;;;;;;;;5072812;28;20047;-73
2023/05/19 06:44:50;;;;;;;6.65;6.05;;;;;;;;;;5080593;28;20044;-74
2023/05/19 06:47:17;;;;;;;6.10;5.60;;;;;;;;;;5089889;28;20052;-73
2023/05/19 06:49:43;;;;;;;7.45;6.70;;;;;;;;;;5071860;28;20064;-74
2023/05/19 06:52:10;;;;;;;9.35;6.78;;;;;;;;;;5079518;28;20050;-74
2023/05/19 06:54:36;;;;;;;8.15;7.55;;;;;;;;;;5055347;28;20577;-73
2023/05/19 06:57:03;;;;;;;6.90;6.40;;;;;;;;;;5089466;28;20048;-75
2023/05/19 06:59:30;;;;;;;7.40;6.80;;;;;;;;;;5033768;28;20067;-73
2023/05/19 07:01:56;;;;;;;9.23;6.90;;;;;;;;;;5071920;28;20059;-76
2023/05/19 07:04:22;;;;;;;7.70;7.05;;;;;;;;;;5089775;28;20043;-74
2023/05/19 07:06:49;;;;;;;9.20;8.50;;;;;;;;;;5067278;28;20040;-74
2023/05/19 07:09:15;;;;;;;9.65;8.65;;;;;;;;;;5085563;28;20101;-75
2023/05/19 07:11:45;;;;;;;9.30;8.25;;;;;;;;;;5054930;28;20040;-74
2023/05/19 07:14:11;;;;;;;8.40;7.60;;;;;;;;;;5077814;28;20085;-75
2023/05/19 07:16:37;;;;;;;8.88;8.07;;;;;;;;;;5096291;28;20183;-74
2023/05/19 07:19:05;;;;;;;8.73;7.65;;;;;;;;;;5071575;28;20043;-74
2023/05/19 07:21:32;;;;;;;9.05;8.15;;;;;;;;;;5054628;28;20056;-75
2023/05/19 07:23:58;;;;;;;7.80;7.13;;;;;;;;;;5077999;28;20053;-73
2023/05/19 07:26:26;;;;;;;8.48;7.88;;;;;;;;;;5077157;28;20426;-75
2023/05/19 07:28:53;;;;;;;8.80;8.20;;;;;;;;;;5071625;28;20047;-76
2023/05/19 07:31:19;;;;;;;8.70;8.00;;;;;;;;;;5071675;28;20051;-74
2023/05/19 07:33:44;;;;;;;8.70;8.10;;;;;;;;;;5089339;28;20565;-76
2023/05/19 07:36:11;;;;;;;8.70;7.47;;;;;;;;;;5085064;28;20048;-74
2023/05/19 07:38:37;;;;;;;9.13;8.23;;;;;;;;;;5088937;28;20082;-73
2023/05/19 07:41:03;;;;;;;8.95;8.15;;;;;;;;;;5071146;28;20055;-75
2023/05/19 07:43:30;;;;;;;10.00;9.07;;;;;;;;;;5088834;28;20522;-74
2023/05/19 07:45:56;;;;;;;10.15;8.93;;;;;;;;;;5048476;28;20051;-74
2023/05/19 07:48:24;;;;;;;15.30;8.48;;;;;;;;;;5088690;28;20118;-75
2023/05/19 07:50:51;;;;;;;18.52;9.75;;;;;;;;;;5072012;28;20193;-75
2023/05/19 07:53:17;;;;;;;12.43;11.23;;;;;;;;;;5087336;28;20040;-75
2023/05/19 07:55:45;;;;;;;10.05;8.80;;;;;;;;;;5099988;28;20434;-74
2023/05/19 07:58:11;;;;;;;11.90;9.23;;;;;;;;;;5088786;28;20032;-75
2023/05/19 08:00:37;;;;;;;9.13;8.23;;;;;;;;;;5089440;28;20083;-75
2023/05/19 08:03:03;;;;;;;10.32;9.23;;;;;;;;;;5089625;28;20063;-75
2023/05/19 08:05:29;;;;;;;9.10;8.18;;;;;;;;;;5089223;28;20062;-75
2023/05/19 08:07:56;;;;;;;9.98;8.95;;;;;;;;;;5071389;28;20036;-75
2023/05/19 08:10:22;;;;;;;14.13;10.00;;;;;;;;;;5069540;28;20036;-75
2023/05/19 08:12:48;;;;;;;13.20;9.00;;;;;;;;;;5109878;28;20054;-74
2023/05/19 08:15:15;;;;;;;18.75;9.48;;;;;;;;;;5089964;28;20043;-74
2023/05/19 08:17:41;;;;;;;9.05;8.27;;;;;;;;;;5073653;28;20043;-75
2023/05/19 08:20:09;;;;;;;9.27;8.38;;;;;;;;;;5072867;28;20086;-75
2023/05/19 08:22:35;;;;;;;11.55;8.30;;;;;;;;;;5090119;28;20055;-75
2023/05/19 08:25:04;;;;;;;9.48;7.82;;;;;;;;;;5089649;28;20461;-74
2023/05/19 08:27:31;;;;;;;9.18;8.40;;;;;;;;;;5043891;28;20043;-74
2023/05/19 08:29:56;;;;;;;8.20;7.60;;;;;;;;;;5071419;28;20512;-74
2023/05/19 08:32:22;;;;;;;8.65;7.93;;;;;;;;;;5089214;28;20579;-76
2023/05/19 08:34:49;;;;;;;11.73;8.65;;;;;;;;;;5089405;28;20126;-75
2023/05/19 08:37:15;;;;;;;8.95;8.05;;;;;;;;;;5072003;28;20121;-75
2023/05/19 08:39:40;;;;;;;10.18;8.55;;;;;;;;;;5092938;28;20534;-75
2023/05/19 08:42:08;;;;;;;9.82;8.27;;;;;;;;;;5093179;28;20052;-75
2023/05/19 08:44:35;;;;;;;8.77;8.05;;;;;;;;;;5074839;28;20044;-75
2023/05/19 08:47:02;;;;;;;9.02;8.20;;;;;;;;;;5093230;28;20048;-75
2023/05/19 08:49:28;;;;;;;12.00;9.18;;;;;;;;;;5074601;28;20044;-75
2023/05/19 08:51:54;;;;;;;10.82;9.13;;;;;;;;;;5074797;28;20579;-76
2023/05/19 08:54:21;;;;;;;8.95;7.82;;;;;;;;;;5092751;28;20062;-75
2023/05/19 08:56:47;;;;;;;11.05;8.85;;;;;;;;;;5072357;28;20052;-75
2023/05/19 08:59:14;;;;;;;9.48;7.70;;;;;;;;;;5092554;28;20048;-75
2023/05/19 09:01:41;;;;;;;10.48;7.95;;;;;;;;;;5092818;28;20055;-75
2023/05/19 09:04:07;;;;;;;9.35;8.50;;;;;;;;;;5088522;28;20036;-76
2023/05/19 09:06:33;;;;;;;8.93;8.23;;;;;;;;;;5074554;28;20063;-75
2023/05/19 09:08:59;;;;;;;9.35;8.65;;;;;;;;;;5074623;28;20070;-76
2023/05/19 09:11:26;;;;;;;12.90;9.13;;;;;;;;;;5092739;28;20040;-76
2023/05/19 09:13:53;;;;;;;11.05;9.82;;;;;;;;;;5092326;28;20040;-75
2023/05/19 09:16:18;;;;;;;10.95;9.93;;;;;;;;;;5092596;28;20173;-76
2023/05/19 09:18:57;;;;;;;9.90;8.90;;;;;;;;;;5074589;28;20506;-76
2023/05/19 09:21:41;;;;;;;11.75;9.27;;;;;;;;;;5092740;28;20052;-76
2023/05/19 09:24:08;;;;;;;8.80;7.97;;;;;;;;;;5093206;28;20039;-75
2023/05/19 09:26:40;;;;;;;8.18;7.57;;;;;;;;;;5095331;28;20563;-75
2023/05/19 09:29:16;;;;;;;7.10;6.35;;;;;;;;;;5095029;28;20381;-75
2023/05/19 09:31:49;;;;;;;6.75;6.15;;;;;;;;;;5088390;28;20125;-75
2023/05/19 09:34:15;;;;;;;7.95;7.05;;;;;;;;;;5109245;28;20059;-76
2023/05/19 09:36:41;;;;;;;7.95;7.15;;;;;;;;;;5101370;28;20040;-76
2023/05/19 09:39:16;;;;;;;9.60;7.45;;;;;;;;;;5115346;28;20040;-75
2023/05/19 09:41:43;;;;;;;15.88;7.97;;;;;;;;;;5094230;28;20483;-75
2023/05/19 09:44:15;;;;;;;9.70;8.65;;;;;;;;;;5068016;28;20044;-76
2023/05/19 09:46:51;;;;;;;6.85;6.15;;;;;;;;;;5064776;28;20040;-75
2023/05/19 09:49:19;;;;;;;9.18;7.97;;;;;;;;;;5074089;28;20044;-75
2023/05/19 09:51:47;;;;;;;10.77;7.85;;;;;;;;;;5073727;28;20036;-75
2023/05/19 09:54:14;;;;;;;8.25;7.70;;;;;;;;;;5073775;28;20511;-76
2023/05/19 09:56:40;;;;;;;8.93;7.05;;;;;;;;;;5091664;28;20056;-75
2023/05/19 09:59:06;;;;;;;8.52;7.47;;;;;;;;;;5070685;28;20063;-75
2023/05/19 10:01:39;;;;;;;5.93;5.32;;;;;;;;;;5057225;28;20562;-75
2023/05/19 10:04:05;;;;;;;7.18;6.00;;;;;;;;;;5074590;28;20063;-74
2023/05/19 10:06:31;;;;;;;6.50;6.03;;;;;;;;;;5091560;28;20415;-75
2023/05/19 10:08:58;;;;;;;7.32;6.50;;;;;;;;;;5074785;28;20036;-74
2023/05/19 10:11:24;;;;;;;6.30;5.70;;;;;;;;;;5067352;28;20046;-74
2023/05/19 10:13:50;;;;;;;7.57;5.22;;;;;;;;;;5076984;28;20429;-74
2023/05/19 10:16:17;;;;;;;7.90;5.93;;;;;;;;;;5091510;28;20040;-74
2023/05/19 10:18:43;;;;;;;6.15;5.65;;;;;;;;;;5069814;28;20516;-74
2023/05/19 10:21:09;;;;;;;6.40;4.97;;;;;;;;;;5073043;28;20070;-75
2023/05/19 10:23:35;;;;;;;5.35;4.85;;;;;;;;;;5091140;28;20043;-75
2023/05/19 10:26:03;;;;;;;9.73;5.00;;;;;;;;;;5073398;28;20032;-73
2023/05/19 10:28:31;;;;;;;5.38;4.88;;;;;;;;;;5073294;28;20055;-74
2023/05/19 10:30:58;;;;;;;9.40;5.25;;;;;;;;;;5073190;28;20054;-75
2023/05/19 10:34:00;;;;;;;8.32;4.55;;;;;;;;;;5073081;28;20131;-76
2023/05/19 10:36:32;;;;;;;6.18;5.20;;;;;;;;;;5009850;28;20073;-76
2023/05/19 10:39:05;;;;;;;8.05;4.55;;;;;;;;;;5080453;28;20044;-77
2023/05/19 10:41:38;;;;;;;8.00;3.88;;;;;;;;;;5073462;28;20511;-77
2023/05/19 10:44:14;;;;;;;5.20;3.35;;;;;;;;;;5076382;28;20172;-77
2023/05/19 10:46:41;;;;;;;3.33;3.03;;;;;;;;;;5072697;28;20116;-77
2023/05/19 10:49:07;;;;;;;4.60;3.47;;;;;;;;;;5069649;28;20043;-77
2023/05/19 10:51:34;;;;;;;6.82;3.13;;;;;;;;;;5072848;28;20040;-76
2023/05/19 10:54:01;;;;;;;6.60;3.78;;;;;;;;;;5072513;28;20077;-77
2023/05/19 10:56:35;;;;;;;5.00;3.60;;;;;;;;;;5098248;28;20066;-77
2023/05/19 10:59:02;;;;;;;6.25;2.75;;;;;;;;;;5096145;28;20044;-77
2023/05/19 11:01:32;;;;;;;5.22;3.33;;;;;;;;;;5072672;28;20340;-77
2023/05/19 11:04:05;;;;;;;4.20;3.40;;;;;;;;;;5090425;28;20044;-78
2023/05/19 11:06:32;;;;;;;5.47;3.25;;;;;;;;;;5072785;28;20507;-80
2023/05/19 11:08:59;;;;;;;5.88;2.58;;;;;;;;;;5071998;28;20055;-78
2023/05/19 11:11:25;;;;;;;4.60;2.90;;;;;;;;;;5072496;28;20074;-76
2023/05/19 11:13:55;;;;;;;5.13;2.50;;;;;;;;;;5072112;28;20089;-76
2023/05/19 11:16:46;;;;;;;5.65;2.55;;;;;;;;;;5090334;28;20032;-76
2023/05/19 11:19:26;;;;;;;5.13;2.30;;;;;;;;;;5085765;28;20572;-76
2023/05/19 11:21:54;;;;;;;3.97;2.65;;;;;;;;;;5071819;28;20573;-75
2023/05/19 11:24:33;;;;;;;5.93;4.43;;;;;;;;;;5072047;28;20043;-76
2023/05/19 11:27:01;;;;;;;6.50;2.80;;;;;;;;;;5071901;28;20519;-76
2023/05/19 11:29:27;;;;;;;5.18;3.08;;;;;;;;;;5083998;28;20134;-76
2023/05/19 11:31:53;;;;;;;5.18;3.08;;;;;;;;;;5091496;28;20612;-76
2023/05/19 11:34:19;;;;;;;3.92;2.67;;;;;;;;;;5090055;28;20051;-76
2023/05/19 11:36:45;;;;;;;4.93;2.55;;;;;;;;;;5089921;28;20124;-76
2023/05/19 11:39:11;;;;;;;5.95;3.05;;;;;;;;;;5089910;28;20127;-76
2023/05/19 11:41:40;;;;;;;10.32;2.83;;;;;;;;;;5071981;28;20598;-77
2023/05/19 11:44:10;;;;;;;7.65;2.30;;;;;;;;;;5089773;28;20070;-75
2023/05/19 11:46:36;;;;;;;;;;;;;;;;;;5090454;28;20032;-76
2023/05/19 11:49:03;;;;;;;6.38;2.35;;;;;;;;;;5071766;28;20006;-76
2023/05/19 11:51:31;;;;;;;8.38;3.17;;;;;;;;;;5089989;28;20051;-76
2023/05/19 11:53:57;;;;;;;8.65;2.33;;;;;;;;;;5067955;28;20134;-77
2023/05/19 11:56:23;;;;;;;4.38;1.95;;;;;;;;;;5071913;28;20468;-75
2023/05/19 11:58:52;;;;;;;12.40;2.55;;;;;;;;;;5069912;28;20047;-76
2023/05/19 12:01:18;;;;;;;7.10;1.90;;;;;;;;;;5060057;28;20492;-76
2023/05/19 12:03:45;;;;;;;4.53;2.00;;;;;;;;;;5089483;28;20523;-77
2023/05/19 12:06:12;;;;;;;2.30;2.10;;;;;;;;;;5089902;28;20122;-75
2023/05/19 12:08:39;;;;;;;10.77;2.80;;;;;;;;;;5068806;28;20047;-76
2023/05/19 12:11:06;;;;;;;3.20;2.17;;;;;;;;;;5089374;28;20043;-76
2023/05/19 12:13:32;;;;;;;4.07;1.85;;;;;;;;;;5074405;28;20210;-76
2023/05/19 12:15:59;;;;;;;3.83;2.20;;;;;;;;;;5093768;28;20078;-76
2023/05/19 12:18:27;;;;;;;3.63;2.40;;;;;;;;;;5075758;28;20487;-76
2023/05/19 12:20:53;;;;;;;2.90;2.17;;;;;;;;;;5093604;28;20105;-77
2023/05/19 12:23:20;;;;;;;2.55;2.05;;;;;;;;;;5075450;28;20044;-76
2023/05/19 12:25:46;;;;;;;2.40;2.20;;;;;;;;;;5063441;28;20051;-75
2023/05/19 12:28:12;;;;;;;5.10;2.28;;;;;;;;;;5093273;28;20044;-76
2023/05/19 12:30:38;;;;;;;2.72;2.53;;;;;;;;;;5093512;28;20040;-76
2023/05/19 12:33:04;;;;;;;4.35;2.60;;;;;;;;;;5075354;28;20063;-76
2023/05/19 12:35:33;;;;;;;7.28;2.13;;;;;;;;;;5093989;28;20044;-76
2023/05/19 12:38:05;;;;;;;5.85;2.40;;;;;;;;;;5075102;28;20423;-76
2023/05/19 12:40:34;;;;;;;8.98;2.38;;;;;;;;;;5093310;28;20531;-77
2023/05/19 12:43:00;;;;;;;9.77;2.22;;;;;;;;;;5093246;28;20048;-76
2023/05/19 12:45:27;;;;;;;4.25;2.00;;;;;;;;;;5093015;28;20044;-76
2023/05/19 12:47:53;;;;;;;8.88;2.60;;;;;;;;;;5074661;28;20807;-77
2023/05/19 12:50:19;;;;;;;9.77;2.70;;;;;;;;;;5074796;28;20040;-77
2023/05/19 12:52:50;;;;;;;6.18;1.90;;;;;;;;;;5057858;28;20515;-77
2023/05/19 12:55:16;;;;;;;3.33;2.33;;;;;;;;;;5074937;28;20055;-76
2023/05/19 12:57:43;;;;;;;6.07;2.00;;;;;;;;;;5075225;28;20036;-77
2023/05/19 13:00:24;;;;;;;7.07;2.55;;;;;;;;;;5092721;28;20066;-76
2023/05/19 13:02:57;;;;;;;3.17;2.20;;;;;;;;;;5092866;28;20050;-77
2023/05/19 13:05:23;;;;;;;5.43;2.33;;;;;;;;;;5106189;28;20056;-77
2023/05/19 13:07:53;;;;;;;7.45;2.40;;;;;;;;;;5092498;28;20101;-76
2023/05/19 13:10:19;;;;;;;2.35;2.10;;;;;;;;;;5072701;28;20124;-76
2023/05/19 13:12:46;;;;;;;4.03;2.63;;;;;;;;;;5104428;28;20591;-77
2023/05/19 13:15:12;;;;;;;5.75;1.90;;;;;;;;;;5092602;28;20130;-76
2023/05/19 13:17:37;;;;;;;2.50;1.73;;;;;;;;;;5074351;28;20067;-76
2023/05/19 13:20:04;;;;;;;2.97;1.80;;;;;;;;;;5073931;28;20133;-76
2023/05/19 13:22:30;;;;;;;4.97;2.17;;;;;;;;;;5074493;28;20051;-76
2023/05/19 13:25:01;;;;;;;2.30;1.90;;;;;;;;;;5073727;28;20473;-77
2023/05/19 13:27:29;;;;;;;6.22;2.20;;;;;;;;;;5074795;28;20043;-77
2023/05/19 13:29:55;;;;;;;6.90;2.05;;;;;;;;;;5073863;28;20039;-76
2023/05/19 13:32:21;;;;;;;10.27;3.42;;;;;;;;;;5092320;28;20043;-76
2023/05/19 13:34:47;;;;;;;5.40;2.60;;;;;;;;;;5074103;28;20407;-76
2023/05/19 13:37:13;;;;;;;5.82;2.20;;;;;;;;;;5074265;28;20400;-77
2023/05/19 13:39:39;;;;;;;7.28;2.47;;;;;;;;;;5091932;28;20051;-76
2023/05/19 13:42:05;;;;;;;4.07;2.15;;;;;;;;;;5057165;28;20150;-76
2023/05/19 13:44:32;;;;;;;3.17;1.90;;;;;;;;;;5077349;28;20048;-76
2023/05/19 13:46:58;;;;;;;1.92;1.77;;;;;;;;;;5076493;28;20047;-75
2023/05/19 13:49:23;;;;;;;2.65;1.98;;;;;;;;;;5078881;28;20032;-75
2023/05/19 13:51:49;;;;;;;5.88;1.83;;;;;;;;;;5092408;28;20036;-76
2023/05/19 13:54:16;;;;;;;4.47;1.73;;;;;;;;;;5073407;28;20055;-76
2023/05/19 13:56:44;;;;;;;4.28;3.33;;;;;;;;;;5082946;28;20052;-76
2023/05/19 13:59:11;;;;;;;6.43;2.30;;;;;;;;;;5091320;28;20048;-75
2023/05/19 14:01:36;;;;;;;2.30;2.20;;;;;;;;;;5056635;28;20052;-76
2023/05/19 14:04:03;;;;;;;2.03;1.63;;;;;;;;;;5089998;28;20036;-76
2023/05/19 14:06:29;;;;;;;1.67;1.58;;;;;;;;;;5083699;28;20047;-76
2023/05/19 14:08:55;;;;;;;3.15;1.92;;;;;;;;;;5102980;28;20067;-75
2023/05/19 14:11:21;;;;;;;6.32;1.90;;;;;;;;;;5095548;28;20126;-75
2023/05/19 14:13:47;;;;;;;2.55;1.70;;;;;;;;;;5074074;28;20079;-77
2023/05/19 14:16:13;;;;;;;1.85;1.75;;;;;;;;;;5091759;28;20032;-76
2023/05/19 14:18:39;;;;;;;4.47;1.70;;;;;;;;;;5092010;28;20043;-76
2023/05/19 14:21:05;;;;;;;5.68;1.95;;;;;;;;;;5072758;28;20078;-76
2023/05/19 14:23:31;;;;;;;1.90;1.80;;;;;;;;;;5086053;28;20568;-75
2023/05/19 14:25:57;;;;;;;6.35;2.05;;;;;;;;;;5073520;28;20036;-77
2023/05/19 14:28:23;;;;;;;4.28;2.08;;;;;;;;;;5089822;28;20039;-77
2023/05/19 14:30:49;;;;;;;1.73;1.60;;;;;;;;;;5098410;28;20441;-76
2023/05/19 14:33:16;;;;;;;3.85;2.10;;;;;;;;;;5078876;28;20468;-75
2023/05/19 14:35:42;;;;;;;5.03;1.85;;;;;;;;;;5095253;28;20040;-76
2023/05/19 14:38:08;;;;;;;5.57;1.90;;;;;;;;;;5077799;28;20101;-76
2023/05/19 14:40:35;;;;;;;3.75;1.77;;;;;;;;;;5085794;28;20044;-76
2023/05/19 14:43:01;;;;;;;2.55;1.80;;;;;;;;;;5064009;28;20454;-76
2023/05/19 14:45:27;;;;;;;3.08;1.90;;;;;;;;;;5077089;28;20039;-75
2023/05/19 14:47:53;;;;;;;2.03;1.65;;;;;;;;;;5096318;28;20093;-76